sensor_id;sensor_type;location;lat;lon;timestamp;P1;durP1;ratioP1;P2;durP2;ratioP2
64199;SDS011;50516;52.272;5.136;2023-01-25T00:02:09;33.92;;;24.20;;
64199;SDS011;50516;52.272;5.136;2023-01-25T00:04:37;32.72;;;23.85;;
64199;SDS011;50516;52.272;5.136;2023-01-25T00:07:05;34.75;;;23.90;;
64199;SDS011;50516;52.272;5.136;2023-01-25T00:09:31;33.63;;;23.75;;
64199;SDS011;50516;52.272;5.136;2023-01-25T00:11:56;34.60;;;24.08;;
64199;SDS011;50516;52.272;5.136;2023-01-25T00:14:23;35.80;;;23.65;;
64199;SDS011;50516;52.272;5.136;2023-01-25T00:17:00;34.58;;;24.60;;
64199;SDS011;50516;52.272;5.136;2023-01-25T00:19:26;32.63;;;23.23;;
64199;SDS011;50516;52.272;5.136;2023-01-25T00:21:51;30.65;;;23.35;;
64199;SDS011;50516;52.272;5.136;2023-01-25T00:24:17;36.60;;;24.75;;
64199;SDS011;50516;52.272;5.136;2023-01-25T00:26:46;31.70;;;22.80;;
64199;SDS011;50516;52.272;5.136;2023-01-25T00:29:19;38.05;;;24.60;;
64199;SDS011;50516;52.272;5.136;2023-01-25T00:37:13;37.40;;;26.30;;
64199;SDS011;50516;52.272;5.136;2023-01-25T00:39:52;36.30;;;25.75;;
64199;SDS011;50516;52.272;5.136;2023-01-25T00:42:18;36.15;;;26.05;;
64199;SDS011;50516;52.272;5.136;2023-01-25T00:44:44;36.28;;;24.85;;
64199;SDS011;50516;52.272;5.136;2023-01-25T00:47:10;34.15;;;24.13;;
64199;SDS011;50516;52.272;5.136;2023-01-25T00:49:37;34.75;;;24.58;;
64199;SDS011;50516;52.272;5.136;2023-01-25T00:52:04;32.20;;;24.02;;
64199;SDS011;50516;52.272;5.136;2023-01-25T00:54:35;35.30;;;24.92;;
64199;SDS011;50516;52.272;5.136;2023-01-25T00:57:01;35.15;;;25.27;;
64199;SDS011;50516;52.272;5.136;2023-01-25T00:59:26;33.22;;;24.17;;
64199;SDS011;50516;52.272;5.136;2023-01-25T01:02:00;35.40;;;25.70;;
64199;SDS011;50516;52.272;5.136;2023-01-25T01:04:27;35.42;;;25.40;;
64199;SDS011;50516;52.272;5.136;2023-01-25T01:06:52;37.92;;;26.02;;
64199;SDS011;50516;52.272;5.136;2023-01-25T01:09:19;34.75;;;25.08;;
64199;SDS011;50516;52.272;5.136;2023-01-25T01:11:45;37.88;;;26.00;;
64199;SDS011;50516;52.272;5.136;2023-01-25T01:14:11;39.97;;;27.40;;
64199;SDS011;50516;52.272;5.136;2023-01-25T01:16:36;39.08;;;25.88;;
64199;SDS011;50516;52.272;5.136;2023-01-25T01:19:05;37.92;;;25.90;;
64199;SDS011;50516;52.272;5.136;2023-01-25T01:21:31;38.20;;;26.00;;
64199;SDS011;50516;52.272;5.136;2023-01-25T01:23:57;38.60;;;26.90;;
64199;SDS011;50516;52.272;5.136;2023-01-25T01:26:23;38.60;;;26.88;;
64199;SDS011;50516;52.272;5.136;2023-01-25T01:28:48;35.92;;;25.00;;
64199;SDS011;50516;52.272;5.136;2023-01-25T01:31:23;38.78;;;27.05;;
64199;SDS011;50516;52.272;5.136;2023-01-25T01:33:50;38.97;;;26.05;;
64199;SDS011;50516;52.272;5.136;2023-01-25T01:36:17;37.28;;;25.80;;
64199;SDS011;50516;52.272;5.136;2023-01-25T01:38:47;39.17;;;27.80;;
64199;SDS011;50516;52.272;5.136;2023-01-25T01:41:19;37.35;;;26.63;;
64199;SDS011;50516;52.272;5.136;2023-01-25T01:43:45;35.63;;;24.88;;
64199;SDS011;50516;52.272;5.136;2023-01-25T01:46:14;38.72;;;26.83;;
64199;SDS011;50516;52.272;5.136;2023-01-25T01:54:19;39.47;;;27.20;;
64199;SDS011;50516;52.272;5.136;2023-01-25T01:57:17;37.80;;;25.58;;
64199;SDS011;50516;52.272;5.136;2023-01-25T02:00:10;34.70;;;25.02;;
64199;SDS011;50516;52.272;5.136;2023-01-25T02:03:11;37.15;;;25.33;;
64199;SDS011;50516;52.272;5.136;2023-01-25T02:08:31;39.60;;;24.90;;
64199;SDS011;50516;52.272;5.136;2023-01-25T02:11:05;38.80;;;24.10;;
64199;SDS011;50516;52.272;5.136;2023-01-25T02:13:32;35.50;;;25.50;;
64199;SDS011;50516;52.272;5.136;2023-01-25T02:16:12;37.05;;;26.02;;
64199;SDS011;50516;52.272;5.136;2023-01-25T02:19:13;37.90;;;26.60;;
64199;SDS011;50516;52.272;5.136;2023-01-25T02:21:55;37.28;;;27.05;;
64199;SDS011;50516;52.272;5.136;2023-01-25T02:24:25;38.40;;;26.23;;
64199;SDS011;50516;52.272;5.136;2023-01-25T02:27:03;38.25;;;26.02;;
64199;SDS011;50516;52.272;5.136;2023-01-25T02:29:28;39.45;;;26.05;;
64199;SDS011;50516;52.272;5.136;2023-01-25T02:31:58;39.13;;;26.77;;
64199;SDS011;50516;52.272;5.136;2023-01-25T02:34:27;37.00;;;26.58;;
64199;SDS011;50516;52.272;5.136;2023-01-25T02:36:59;38.08;;;26.77;;
64199;SDS011;50516;52.272;5.136;2023-01-25T02:39:25;37.00;;;26.73;;
64199;SDS011;50516;52.272;5.136;2023-01-25T02:41:52;36.03;;;24.95;;
64199;SDS011;50516;52.272;5.136;2023-01-25T02:44:22;38.78;;;26.48;;
64199;SDS011;50516;52.272;5.136;2023-01-25T02:46:51;36.00;;;25.50;;
64199;SDS011;50516;52.272;5.136;2023-01-25T02:49:16;38.63;;;26.67;;
64199;SDS011;50516;52.272;5.136;2023-01-25T02:51:44;37.40;;;26.92;;
64199;SDS011;50516;52.272;5.136;2023-01-25T02:54:12;37.10;;;24.90;;
64199;SDS011;50516;52.272;5.136;2023-01-25T02:56:39;35.67;;;23.73;;
64199;SDS011;50516;52.272;5.136;2023-01-25T02:59:08;35.80;;;24.55;;
64199;SDS011;50516;52.272;5.136;2023-01-25T03:01:38;35.63;;;24.98;;
64199;SDS011;50516;52.272;5.136;2023-01-25T03:04:07;38.00;;;25.42;;
64199;SDS011;50516;52.272;5.136;2023-01-25T03:06:37;35.88;;;25.30;;
64199;SDS011;50516;52.272;5.136;2023-01-25T03:09:04;36.97;;;23.98;;
64199;SDS011;50516;52.272;5.136;2023-01-25T03:11:31;37.72;;;24.33;;
64199;SDS011;50516;52.272;5.136;2023-01-25T03:13:56;36.67;;;24.23;;
64199;SDS011;50516;52.272;5.136;2023-01-25T03:16:25;34.38;;;24.02;;
64199;SDS011;50516;52.272;5.136;2023-01-25T03:18:54;36.95;;;24.20;;
64199;SDS011;50516;52.272;5.136;2023-01-25T03:21:20;34.35;;;24.48;;
64199;SDS011;50516;52.272;5.136;2023-01-25T03:23:47;35.15;;;25.33;;
64199;SDS011;50516;52.272;5.136;2023-01-25T03:26:26;35.35;;;23.60;;
64199;SDS011;50516;52.272;5.136;2023-01-25T03:28:53;35.33;;;23.75;;
64199;SDS011;50516;52.272;5.136;2023-01-25T03:31:19;35.80;;;25.23;;
64199;SDS011;50516;52.272;5.136;2023-01-25T03:33:45;35.05;;;23.92;;
64199;SDS011;50516;52.272;5.136;2023-01-25T03:36:12;36.92;;;25.00;;
64199;SDS011;50516;52.272;5.136;2023-01-25T03:38:41;35.42;;;24.23;;
64199;SDS011;50516;52.272;5.136;2023-01-25T03:41:07;43.30;;;25.67;;
64199;SDS011;50516;52.272;5.136;2023-01-25T03:43:33;36.90;;;26.20;;
64199;SDS011;50516;52.272;5.136;2023-01-25T03:45:59;35.63;;;25.35;;
64199;SDS011;50516;52.272;5.136;2023-01-25T03:48:26;38.45;;;25.83;;
64199;SDS011;50516;52.272;5.136;2023-01-25T03:50:53;39.83;;;26.50;;
64199;SDS011;50516;52.272;5.136;2023-01-25T03:53:27;36.13;;;24.33;;
64199;SDS011;50516;52.272;5.136;2023-01-25T03:55:55;38.75;;;24.88;;
64199;SDS011;50516;52.272;5.136;2023-01-25T03:58:32;35.95;;;24.60;;
64199;SDS011;50516;52.272;5.136;2023-01-25T04:00:59;36.90;;;25.27;;
64199;SDS011;50516;52.272;5.136;2023-01-25T04:03:25;39.90;;;25.60;;
64199;SDS011;50516;52.272;5.136;2023-01-25T04:05:58;38.65;;;26.00;;
64199;SDS011;50516;52.272;5.136;2023-01-25T04:08:27;43.30;;;27.35;;
64199;SDS011;50516;52.272;5.136;2023-01-25T04:10:53;39.08;;;25.42;;
64199;SDS011;50516;52.272;5.136;2023-01-25T04:13:20;37.25;;;25.42;;
64199;SDS011;50516;52.272;5.136;2023-01-25T04:15:58;36.60;;;25.17;;
64199;SDS011;50516;52.272;5.136;2023-01-25T04:18:23;37.08;;;25.10;;
64199;SDS011;50516;52.272;5.136;2023-01-25T04:20:54;37.95;;;25.90;;
64199;SDS011;50516;52.272;5.136;2023-01-25T04:23:29;34.88;;;25.27;;
64199;SDS011;50516;52.272;5.136;2023-01-25T04:26:02;40.75;;;25.65;;
64199;SDS011;50516;52.272;5.136;2023-01-25T04:28:32;34.75;;;23.85;;
64199;SDS011;50516;52.272;5.136;2023-01-25T04:30:58;40.38;;;25.92;;
64199;SDS011;50516;52.272;5.136;2023-01-25T04:33:24;34.55;;;23.77;;
64199;SDS011;50516;52.272;5.136;2023-01-25T04:35:50;42.65;;;25.33;;
64199;SDS011;50516;52.272;5.136;2023-01-25T04:38:29;38.40;;;25.25;;
64199;SDS011;50516;52.272;5.136;2023-01-25T04:40:54;36.83;;;25.13;;
64199;SDS011;50516;52.272;5.136;2023-01-25T04:43:20;39.10;;;24.90;;
64199;SDS011;50516;52.272;5.136;2023-01-25T04:45:45;35.88;;;25.15;;
64199;SDS011;50516;52.272;5.136;2023-01-25T04:48:12;38.45;;;24.05;;
64199;SDS011;50516;52.272;5.136;2023-01-25T04:50:40;35.15;;;22.92;;
64199;SDS011;50516;52.272;5.136;2023-01-25T04:53:07;41.20;;;25.73;;
64199;SDS011;50516;52.272;5.136;2023-01-25T04:55:34;41.72;;;26.02;;
64199;SDS011;50516;52.272;5.136;2023-01-25T04:58:00;37.47;;;24.45;;
64199;SDS011;50516;52.272;5.136;2023-01-25T05:00:39;39.15;;;25.27;;
64199;SDS011;50516;52.272;5.136;2023-01-25T05:03:24;36.60;;;23.48;;
64199;SDS011;50516;52.272;5.136;2023-01-25T05:06:07;32.47;;;21.73;;
64199;SDS011;50516;52.272;5.136;2023-01-25T05:08:32;35.97;;;23.10;;
64199;SDS011;50516;52.272;5.136;2023-01-25T05:10:57;35.63;;;23.98;;
64199;SDS011;50516;52.272;5.136;2023-01-25T05:13:23;39.80;;;26.13;;
64199;SDS011;50516;52.272;5.136;2023-01-25T05:15:48;35.63;;;23.17;;
64199;SDS011;50516;52.272;5.136;2023-01-25T05:18:14;35.55;;;23.42;;
64199;SDS011;50516;52.272;5.136;2023-01-25T05:20:40;39.40;;;24.83;;
64199;SDS011;50516;52.272;5.136;2023-01-25T05:23:11;37.15;;;24.52;;
64199;SDS011;50516;52.272;5.136;2023-01-25T05:25:36;39.28;;;24.58;;
64199;SDS011;50516;52.272;5.136;2023-01-25T05:28:20;39.35;;;25.02;;
64199;SDS011;50516;52.272;5.136;2023-01-25T05:30:45;38.63;;;25.70;;
64199;SDS011;50516;52.272;5.136;2023-01-25T05:33:11;36.85;;;24.20;;
64199;SDS011;50516;52.272;5.136;2023-01-25T05:35:36;43.42;;;26.98;;
64199;SDS011;50516;52.272;5.136;2023-01-25T05:38:13;40.50;;;24.38;;
64199;SDS011;50516;52.272;5.136;2023-01-25T05:40:56;43.25;;;26.92;;
64199;SDS011;50516;52.272;5.136;2023-01-25T05:43:27;47.08;;;28.20;;
64199;SDS011;50516;52.272;5.136;2023-01-25T05:46:07;40.60;;;27.30;;
64199;SDS011;50516;52.272;5.136;2023-01-25T05:48:34;40.92;;;27.13;;
64199;SDS011;50516;52.272;5.136;2023-01-25T05:51:05;43.95;;;27.05;;
64199;SDS011;50516;52.272;5.136;2023-01-25T05:53:31;40.72;;;26.40;;
64199;SDS011;50516;52.272;5.136;2023-01-25T05:56:02;43.03;;;26.65;;
64199;SDS011;50516;52.272;5.136;2023-01-25T05:58:31;42.63;;;27.23;;
64199;SDS011;50516;52.272;5.136;2023-01-25T06:01:06;41.80;;;26.85;;
64199;SDS011;50516;52.272;5.136;2023-01-25T06:03:32;44.10;;;28.27;;
64199;SDS011;50516;52.272;5.136;2023-01-25T06:05:59;46.60;;;29.50;;
64199;SDS011;50516;52.272;5.136;2023-01-25T06:08:34;48.65;;;30.02;;
64199;SDS011;50516;52.272;5.136;2023-01-25T06:11:04;50.40;;;30.42;;
64199;SDS011;50516;52.272;5.136;2023-01-25T06:13:43;47.72;;;29.40;;
64199;SDS011;50516;52.272;5.136;2023-01-25T06:16:10;52.42;;;31.00;;
64199;SDS011;50516;52.272;5.136;2023-01-25T06:18:36;47.88;;;30.05;;
64199;SDS011;50516;52.272;5.136;2023-01-25T06:27:49;50.90;;;29.98;;
64199;SDS011;50516;52.272;5.136;2023-01-25T06:30:30;50.47;;;28.38;;
64199;SDS011;50516;52.272;5.136;2023-01-25T06:33:23;52.38;;;30.60;;
64199;SDS011;50516;52.272;5.136;2023-01-25T06:36:00;50.97;;;30.70;;
64199;SDS011;50516;52.272;5.136;2023-01-25T06:39:20;53.60;;;32.00;;
64199;SDS011;50516;52.272;5.136;2023-01-25T06:42:48;54.83;;;32.85;;
64199;SDS011;50516;52.272;5.136;2023-01-25T06:45:26;56.05;;;33.22;;
64199;SDS011;50516;52.272;5.136;2023-01-25T06:47:58;57.45;;;32.20;;
64199;SDS011;50516;52.272;5.136;2023-01-25T06:50:53;55.72;;;32.13;;
64199;SDS011;50516;52.272;5.136;2023-01-25T06:53:26;52.90;;;31.42;;
64199;SDS011;50516;52.272;5.136;2023-01-25T06:56:16;52.67;;;31.55;;
64199;SDS011;50516;52.272;5.136;2023-01-25T06:58:47;59.28;;;31.58;;
64199;SDS011;50516;52.272;5.136;2023-01-25T07:01:49;51.72;;;30.48;;
64199;SDS011;50516;52.272;5.136;2023-01-25T07:04:21;53.03;;;30.98;;
64199;SDS011;50516;52.272;5.136;2023-01-25T07:06:57;54.45;;;29.35;;
64199;SDS011;50516;52.272;5.136;2023-01-25T07:09:33;53.33;;;32.58;;
64199;SDS011;50516;52.272;5.136;2023-01-25T07:12:03;54.13;;;30.52;;
64199;SDS011;50516;52.272;5.136;2023-01-25T07:14:38;56.65;;;32.15;;
64199;SDS011;50516;52.272;5.136;2023-01-25T07:17:19;55.95;;;31.88;;
64199;SDS011;50516;52.272;5.136;2023-01-25T07:19:45;46.55;;;28.77;;
64199;SDS011;50516;52.272;5.136;2023-01-25T07:22:21;47.72;;;29.08;;
64199;SDS011;50516;52.272;5.136;2023-01-25T07:24:46;51.78;;;30.00;;
64199;SDS011;50516;52.272;5.136;2023-01-25T07:27:21;51.10;;;30.40;;
64199;SDS011;50516;52.272;5.136;2023-01-25T07:29:50;51.92;;;29.08;;
64199;SDS011;50516;52.272;5.136;2023-01-25T07:32:16;53.50;;;31.13;;
64199;SDS011;50516;52.272;5.136;2023-01-25T07:34:41;51.33;;;30.65;;
64199;SDS011;50516;52.272;5.136;2023-01-25T07:37:07;48.08;;;30.35;;
64199;SDS011;50516;52.272;5.136;2023-01-25T07:39:36;52.70;;;30.88;;
64199;SDS011;50516;52.272;5.136;2023-01-25T07:42:14;49.38;;;29.13;;
64199;SDS011;50516;52.272;5.136;2023-01-25T07:44:40;50.03;;;29.27;;
64199;SDS011;50516;52.272;5.136;2023-01-25T07:47:05;49.65;;;29.98;;
64199;SDS011;50516;52.272;5.136;2023-01-25T07:49:36;53.05;;;29.92;;
64199;SDS011;50516;52.272;5.136;2023-01-25T07:52:01;53.03;;;30.48;;
64199;SDS011;50516;52.272;5.136;2023-01-25T07:54:27;55.92;;;30.35;;
64199;SDS011;50516;52.272;5.136;2023-01-25T07:56:57;53.75;;;31.48;;
64199;SDS011;50516;52.272;5.136;2023-01-25T07:59:23;50.15;;;28.42;;
64199;SDS011;50516;52.272;5.136;2023-01-25T08:01:52;53.17;;;30.58;;
64199;SDS011;50516;52.272;5.136;2023-01-25T08:04:18;55.03;;;31.38;;
64199;SDS011;50516;52.272;5.136;2023-01-25T08:06:43;52.65;;;28.92;;
64199;SDS011;50516;52.272;5.136;2023-01-25T08:09:11;57.08;;;31.83;;
64199;SDS011;50516;52.272;5.136;2023-01-25T08:11:41;54.80;;;30.92;;
64199;SDS011;50516;52.272;5.136;2023-01-25T08:14:13;47.75;;;28.10;;
64199;SDS011;50516;52.272;5.136;2023-01-25T08:16:39;55.03;;;31.42;;
64199;SDS011;50516;52.272;5.136;2023-01-25T08:19:08;51.53;;;29.98;;
64199;SDS011;50516;52.272;5.136;2023-01-25T08:21:34;51.35;;;28.92;;
64199;SDS011;50516;52.272;5.136;2023-01-25T08:24:01;54.60;;;30.75;;
64199;SDS011;50516;52.272;5.136;2023-01-25T08:26:30;55.70;;;33.13;;
64199;SDS011;50516;52.272;5.136;2023-01-25T08:28:55;55.13;;;31.75;;
64199;SDS011;50516;52.272;5.136;2023-01-25T08:31:22;52.47;;;29.77;;
64199;SDS011;50516;52.272;5.136;2023-01-25T08:33:49;51.42;;;30.38;;
64199;SDS011;50516;52.272;5.136;2023-01-25T08:38:54;49.25;;;28.55;;
64199;SDS011;50516;52.272;5.136;2023-01-25T08:41:36;50.20;;;29.73;;
64199;SDS011;50516;52.272;5.136;2023-01-25T08:44:06;55.22;;;30.23;;
64199;SDS011;50516;52.272;5.136;2023-01-25T08:46:32;50.75;;;29.73;;
64199;SDS011;50516;52.272;5.136;2023-01-25T08:48:58;48.17;;;28.30;;
64199;SDS011;50516;52.272;5.136;2023-01-25T08:51:25;52.15;;;30.83;;
64199;SDS011;50516;52.272;5.136;2023-01-25T08:53:54;52.53;;;29.25;;
64199;SDS011;50516;52.272;5.136;2023-01-25T08:56:28;54.20;;;29.52;;
64199;SDS011;50516;52.272;5.136;2023-01-25T08:58:54;50.05;;;28.77;;
64199;SDS011;50516;52.272;5.136;2023-01-25T09:01:20;53.03;;;30.20;;
64199;SDS011;50516;52.272;5.136;2023-01-25T09:03:47;52.70;;;30.00;;
64199;SDS011;50516;52.272;5.136;2023-01-25T09:06:17;49.88;;;27.77;;
64199;SDS011;50516;52.272;5.136;2023-01-25T09:08:47;52.88;;;30.08;;
64199;SDS011;50516;52.272;5.136;2023-01-25T09:11:14;45.17;;;26.42;;
64199;SDS011;50516;52.272;5.136;2023-01-25T09:13:41;49.05;;;28.38;;
64199;SDS011;50516;52.272;5.136;2023-01-25T09:16:18;54.78;;;29.95;;
64199;SDS011;50516;52.272;5.136;2023-01-25T09:19:03;47.50;;;27.05;;
64199;SDS011;50516;52.272;5.136;2023-01-25T09:21:29;48.47;;;28.65;;
64199;SDS011;50516;52.272;5.136;2023-01-25T09:24:03;50.28;;;29.42;;
64199;SDS011;50516;52.272;5.136;2023-01-25T09:26:35;48.85;;;28.85;;
64199;SDS011;50516;52.272;5.136;2023-01-25T09:29:02;47.65;;;27.60;;
64199;SDS011;50516;52.272;5.136;2023-01-25T09:31:36;53.10;;;29.80;;
64199;SDS011;50516;52.272;5.136;2023-01-25T09:34:07;46.65;;;26.70;;
64199;SDS011;50516;52.272;5.136;2023-01-25T09:36:35;50.05;;;27.83;;
64199;SDS011;50516;52.272;5.136;2023-01-25T09:39:03;54.72;;;30.92;;
64199;SDS011;50516;52.272;5.136;2023-01-25T09:47:26;56.30;;;30.48;;
64199;SDS011;50516;52.272;5.136;2023-01-25T09:55:29;52.97;;;28.52;;
64199;SDS011;50516;52.272;5.136;2023-01-25T09:57:56;57.35;;;31.08;;
64199;SDS011;50516;52.272;5.136;2023-01-25T10:00:33;54.78;;;29.85;;
64199;SDS011;50516;52.272;5.136;2023-01-25T10:03:25;52.75;;;30.65;;
64199;SDS011;50516;52.272;5.136;2023-01-25T10:06:09;53.97;;;28.65;;
64199;SDS011;50516;52.272;5.136;2023-01-25T10:08:41;57.03;;;32.78;;
64199;SDS011;50516;52.272;5.136;2023-01-25T10:11:23;56.47;;;31.25;;
64199;SDS011;50516;52.272;5.136;2023-01-25T10:14:00;58.35;;;31.15;;
64199;SDS011;50516;52.272;5.136;2023-01-25T10:21:27;56.30;;;30.98;;
64199;SDS011;50516;52.272;5.136;2023-01-25T10:24:31;49.70;;;29.80;;
64199;SDS011;50516;52.272;5.136;2023-01-25T10:30:19;54.10;;;30.55;;
64199;SDS011;50516;52.272;5.136;2023-01-25T10:32:47;56.90;;;29.10;;
64199;SDS011;50516;52.272;5.136;2023-01-25T10:35:21;54.15;;;30.50;;
64199;SDS011;50516;52.272;5.136;2023-01-25T10:37:55;58.22;;;31.42;;
64199;SDS011;50516;52.272;5.136;2023-01-25T10:40:25;52.22;;;28.92;;
64199;SDS011;50516;52.272;5.136;2023-01-25T10:43:10;54.35;;;29.35;;
64199;SDS011;50516;52.272;5.136;2023-01-25T10:45:43;53.58;;;29.08;;
64199;SDS011;50516;52.272;5.136;2023-01-25T10:48:11;55.78;;;31.52;;
64199;SDS011;50516;52.272;5.136;2023-01-25T10:50:53;57.80;;;29.75;;
64199;SDS011;50516;52.272;5.136;2023-01-25T10:53:24;63.65;;;32.40;;
64199;SDS011;50516;52.272;5.136;2023-01-25T11:00:59;59.33;;;33.05;;
64199;SDS011;50516;52.272;5.136;2023-01-25T11:03:49;62.80;;;32.92;;
64199;SDS011;50516;52.272;5.136;2023-01-25T11:06:15;62.38;;;33.60;;
64199;SDS011;50516;52.272;5.136;2023-01-25T11:11:55;63.33;;;32.53;;
64199;SDS011;50516;52.272;5.136;2023-01-25T11:14:40;57.72;;;31.63;;
64199;SDS011;50516;52.272;5.136;2023-01-25T11:17:16;60.42;;;32.80;;
64199;SDS011;50516;52.272;5.136;2023-01-25T11:19:47;60.40;;;32.70;;
64199;SDS011;50516;52.272;5.136;2023-01-25T11:22:55;64.13;;;32.63;;
64199;SDS011;50516;52.272;5.136;2023-01-25T11:25:28;62.33;;;33.35;;
64199;SDS011;50516;52.272;5.136;2023-01-25T11:28:13;61.83;;;32.95;;
64199;SDS011;50516;52.272;5.136;2023-01-25T11:30:47;59.85;;;29.77;;
64199;SDS011;50516;52.272;5.136;2023-01-25T11:33:14;59.40;;;32.47;;
64199;SDS011;50516;52.272;5.136;2023-01-25T11:35:47;59.00;;;32.30;;
64199;SDS011;50516;52.272;5.136;2023-01-25T11:38:14;56.38;;;31.92;;
64199;SDS011;50516;52.272;5.136;2023-01-25T11:40:52;61.40;;;32.38;;
64199;SDS011;50516;52.272;5.136;2023-01-25T11:49:12;59.88;;;31.52;;
64199;SDS011;50516;52.272;5.136;2023-01-25T11:51:42;66.45;;;35.10;;
64199;SDS011;50516;52.272;5.136;2023-01-25T11:57:18;61.92;;;32.90;;
64199;SDS011;50516;52.272;5.136;2023-01-25T12:15:03;67.93;;;33.83;;
64199;SDS011;50516;52.272;5.136;2023-01-25T12:21:02;67.55;;;35.75;;
64199;SDS011;50516;52.272;5.136;2023-01-25T12:26:36;75.47;;;34.65;;
64199;SDS011;50516;52.272;5.136;2023-01-25T12:31:46;83.15;;;37.63;;
64199;SDS011;50516;52.272;5.136;2023-01-25T12:34:37;75.80;;;35.95;;
64199;SDS011;50516;52.272;5.136;2023-01-25T12:37:16;77.95;;;35.70;;
64199;SDS011;50516;52.272;5.136;2023-01-25T12:39:59;78.88;;;37.75;;
64199;SDS011;50516;52.272;5.136;2023-01-25T12:42:49;68.47;;;33.67;;
64199;SDS011;50516;52.272;5.136;2023-01-25T12:45:53;66.53;;;32.22;;
64199;SDS011;50516;52.272;5.136;2023-01-25T12:48:32;68.15;;;32.67;;
64199;SDS011;50516;52.272;5.136;2023-01-25T12:51:05;68.28;;;33.58;;
64199;SDS011;50516;52.272;5.136;2023-01-25T12:53:44;68.57;;;32.60;;
64199;SDS011;50516;52.272;5.136;2023-01-25T13:05:31;72.70;;;36.50;;
64199;SDS011;50516;52.272;5.136;2023-01-25T13:16:50;67.30;;;35.45;;
64199;SDS011;50516;52.272;5.136;2023-01-25T13:19:44;75.35;;;37.30;;
64199;SDS011;50516;52.272;5.136;2023-01-25T13:25:25;66.75;;;35.60;;
64199;SDS011;50516;52.272;5.136;2023-01-25T13:28:38;70.47;;;36.67;;
64199;SDS011;50516;52.272;5.136;2023-01-25T13:40:00;69.60;;;37.08;;
64199;SDS011;50516;52.272;5.136;2023-01-25T13:45:58;71.80;;;37.17;;
64199;SDS011;50516;52.272;5.136;2023-01-25T13:48:24;73.82;;;35.70;;
64199;SDS011;50516;52.272;5.136;2023-01-25T13:51:05;71.68;;;36.83;;
64199;SDS011;50516;52.272;5.136;2023-01-25T13:54:13;73.40;;;37.47;;
64199;SDS011;50516;52.272;5.136;2023-01-25T13:56:39;70.50;;;35.95;;
64199;SDS011;50516;52.272;5.136;2023-01-25T13:59:35;71.50;;;36.53;;
64199;SDS011;50516;52.272;5.136;2023-01-25T14:02:01;77.22;;;36.40;;
64199;SDS011;50516;52.272;5.136;2023-01-25T14:04:28;73.30;;;36.08;;
64199;SDS011;50516;52.272;5.136;2023-01-25T14:07:10;75.88;;;40.20;;
64199;SDS011;50516;52.272;5.136;2023-01-25T14:09:46;78.35;;;38.35;;
64199;SDS011;50516;52.272;5.136;2023-01-25T14:15:24;78.78;;;40.25;;
64199;SDS011;50516;52.272;5.136;2023-01-25T14:18:17;83.57;;;40.45;;
64199;SDS011;50516;52.272;5.136;2023-01-25T14:20:50;78.88;;;40.08;;
64199;SDS011;50516;52.272;5.136;2023-01-25T14:23:34;89.40;;;43.08;;
64199;SDS011;50516;52.272;5.136;2023-01-25T14:26:00;88.00;;;43.50;;
64199;SDS011;50516;52.272;5.136;2023-01-25T14:28:37;87.53;;;43.95;;
64199;SDS011;50516;52.272;5.136;2023-01-25T14:31:02;82.90;;;42.30;;
64199;SDS011;50516;52.272;5.136;2023-01-25T14:33:35;78.93;;;41.42;;
64199;SDS011;50516;52.272;5.136;2023-01-25T14:36:12;85.78;;;42.97;;
64199;SDS011;50516;52.272;5.136;2023-01-25T14:42:05;89.10;;;42.42;;
64199;SDS011;50516;52.272;5.136;2023-01-25T14:44:43;85.38;;;43.83;;
64199;SDS011;50516;52.272;5.136;2023-01-25T14:53:18;83.68;;;40.90;;
64199;SDS011;50516;52.272;5.136;2023-01-25T14:55:49;83.90;;;40.92;;
64199;SDS011;50516;52.272;5.136;2023-01-25T14:58:21;85.45;;;40.83;;
64199;SDS011;50516;52.272;5.136;2023-01-25T15:01:01;91.70;;;45.25;;
64199;SDS011;50516;52.272;5.136;2023-01-25T15:03:28;90.20;;;42.55;;
64199;SDS011;50516;52.272;5.136;2023-01-25T15:05:55;88.93;;;44.10;;
64199;SDS011;50516;52.272;5.136;2023-01-25T15:08:37;90.65;;;45.50;;
64199;SDS011;50516;52.272;5.136;2023-01-25T15:11:30;99.07;;;47.80;;
64199;SDS011;50516;52.272;5.136;2023-01-25T15:14:13;102.78;;;47.70;;
64199;SDS011;50516;52.272;5.136;2023-01-25T15:16:51;97.05;;;46.08;;
64199;SDS011;50516;52.272;5.136;2023-01-25T15:19:31;98.82;;;46.47;;
64199;SDS011;50516;52.272;5.136;2023-01-25T15:21:59;93.57;;;45.38;;
64199;SDS011;50516;52.272;5.136;2023-01-25T15:24:40;90.22;;;41.85;;
64199;SDS011;50516;52.272;5.136;2023-01-25T15:27:08;90.80;;;45.33;;
64199;SDS011;50516;52.272;5.136;2023-01-25T15:29:43;88.47;;;43.00;;
64199;SDS011;50516;52.272;5.136;2023-01-25T15:32:11;98.47;;;46.92;;
64199;SDS011;50516;52.272;5.136;2023-01-25T15:35:01;96.90;;;45.60;;
64199;SDS011;50516;52.272;5.136;2023-01-25T15:37:55;104.03;;;46.08;;
64199;SDS011;50516;52.272;5.136;2023-01-25T15:40:23;93.32;;;45.10;;
64199;SDS011;50516;52.272;5.136;2023-01-25T15:42:55;97.68;;;46.10;;
64199;SDS011;50516;52.272;5.136;2023-01-25T15:45:30;98.35;;;46.83;;
64199;SDS011;50516;52.272;5.136;2023-01-25T15:48:13;93.03;;;43.63;;
64199;SDS011;50516;52.272;5.136;2023-01-25T15:51:15;98.55;;;44.80;;
64199;SDS011;50516;52.272;5.136;2023-01-25T15:53:44;95.15;;;44.90;;
64199;SDS011;50516;52.272;5.136;2023-01-25T15:58:46;92.70;;;44.92;;
64199;SDS011;50516;52.272;5.136;2023-01-25T16:01:16;95.68;;;45.97;;
64199;SDS011;50516;52.272;5.136;2023-01-25T16:03:42;96.45;;;46.00;;
64199;SDS011;50516;52.272;5.136;2023-01-25T16:08:58;93.80;;;43.95;;
64199;SDS011;50516;52.272;5.136;2023-01-25T16:11:25;101.25;;;45.10;;
64199;SDS011;50516;52.272;5.136;2023-01-25T16:13:50;96.25;;;44.42;;
64199;SDS011;50516;52.272;5.136;2023-01-25T16:16:16;94.05;;;44.72;;
64199;SDS011;50516;52.272;5.136;2023-01-25T16:18:44;96.25;;;47.40;;
64199;SDS011;50516;52.272;5.136;2023-01-25T16:21:10;97.03;;;45.78;;
64199;SDS011;50516;52.272;5.136;2023-01-25T16:23:36;89.55;;;43.72;;
64199;SDS011;50516;52.272;5.136;2023-01-25T16:26:01;97.55;;;44.85;;
64199;SDS011;50516;52.272;5.136;2023-01-25T16:28:27;95.32;;;42.47;;
64199;SDS011;50516;52.272;5.136;2023-01-25T16:30:52;96.40;;;45.83;;
64199;SDS011;50516;52.272;5.136;2023-01-25T16:33:18;96.88;;;46.67;;
64199;SDS011;50516;52.272;5.136;2023-01-25T16:35:51;101.53;;;47.72;;
64199;SDS011;50516;52.272;5.136;2023-01-25T16:38:42;97.53;;;44.17;;
64199;SDS011;50516;52.272;5.136;2023-01-25T16:41:08;96.90;;;44.08;;
64199;SDS011;50516;52.272;5.136;2023-01-25T16:43:37;95.93;;;45.20;;
64199;SDS011;50516;52.272;5.136;2023-01-25T16:46:20;91.43;;;43.72;;
64199;SDS011;50516;52.272;5.136;2023-01-25T16:48:47;89.40;;;41.70;;
64199;SDS011;50516;52.272;5.136;2023-01-25T16:51:22;100.35;;;43.58;;
64199;SDS011;50516;52.272;5.136;2023-01-25T16:53:49;97.05;;;45.08;;
64199;SDS011;50516;52.272;5.136;2023-01-25T16:56:21;95.85;;;46.17;;
64199;SDS011;50516;52.272;5.136;2023-01-25T16:58:48;92.70;;;44.00;;
64199;SDS011;50516;52.272;5.136;2023-01-25T17:01:16;91.60;;;43.90;;
64199;SDS011;50516;52.272;5.136;2023-01-25T17:03:42;100.07;;;44.28;;
64199;SDS011;50516;52.272;5.136;2023-01-25T17:06:14;90.35;;;43.70;;
64199;SDS011;50516;52.272;5.136;2023-01-25T17:08:42;91.88;;;43.47;;